Atlantic Elm — 9HA3054 — position and weather

sailwx.info

Track history (hours):
 
Tides and Currents Weather Stations Pressure Air Temp Water Temp Dewpoint Dewpoint Depression Visibility Wind Speed Wind Dir Waves Ship Positions

Atlantic Elm

Last reported at 2016-May-27 08:16 UTC. Time now 2016-May-30 20:19 UTC.
Position N 39°26' W 072°37'.

Length 190 m; draft 10.5 m.

Type: Ship (hazmat cat A). MMSI: 229081000.

Date/timePositionNaut miles runAvg speedWind from/ knotsBaromVisibWave heightAir tempDewpointWater temp
2016-May-27 08:16N 39°26' W 072°37'912.9
2016-May-27 07:33N 39°32' W 072°45'1312.9
2016-May-27 06:33N 39°42' W 072°57'1313.0
2016-May-27 05:33N 39°50' W 073°10'1312.6
2016-May-27 04:33N 39°59' W 073°21'1212.3
2016-May-27 03:33N 40°09' W 073°31'1111.2
2016-May-27 02:33N 40°18' W 073°40'10 9.7
2016-May-27 01:32N 40°25' W 073°48'9 9.3
2016-May-27 00:33N 40°30' W 073°58'9 8.6
2016-May-26 23:33N 40°38' W 074°03'0 0.2
2016-May-26 22:33N 40°38' W 074°04'0 0.0
2016-May-26 21:33N 40°38' W 074°04'0 0.0
2016-May-26 20:33N 40°38' W 074°04'0 0.0
2016-May-26 19:33N 40°38' W 074°04'0 0.2
2016-May-26 18:33N 40°38' W 074°04'0 0.1
2016-May-26 17:33N 40°38' W 074°04'0 0.1
2016-May-26 16:33N 40°38' W 074°04'4 4.1
2016-May-26 15:33N 40°39' W 074°09'2 2.1
2016-May-26 14:32N 40°41' W 074°08'0 0.0
2016-May-26 13:29N 40°41' W 074°08'0 0.0
2016-May-26 12:32N 40°41' W 074°08'0 0.0
2016-May-26 11:32N 40°41' W 074°08'0 0.0
2016-May-26 10:29N 40°41' W 074°08'0 0.0
2016-May-26 09:32N 40°41' W 074°08'0 0.0
2016-May-26 08:32N 40°41' W 074°08'0 0.0
2016-May-26 07:32N 40°41' W 074°08'0 0.0
2016-May-26 06:32N 40°41' W 074°08'0 0.0
2016-May-26 05:32N 40°41' W 074°08'0 0.0
2016-May-26 04:32N 40°41' W 074°08'0 0.0
2016-May-26 03:29N 40°41' W 074°08'0 0.0
2016-May-26 01:20N 40°41' W 074°08'0 0.0
2016-May-26 00:29N 40°41' W 074°08'0 0.0
2016-May-25 23:32N 40°41' W 074°08'0 0.0
2016-May-25 22:29N 40°41' W 074°08'0 0.0
2016-May-25 21:32N 40°41' W 074°08'0 0.0
2016-May-25 20:32N 40°41' W 074°08'0 0.0
2016-May-25 19:29N 40°41' W 074°08'0 0.0
2016-May-25 18:29N 40°41' W 074°08'0 0.0
2016-May-25 17:32N 40°41' W 074°08'0 0.0
2016-May-25 16:32N 40°41' W 074°08'0 0.0
2016-May-25 15:32N 40°41' W 074°08'0 0.0
2016-May-25 14:32N 40°41' W 074°08'0 0.0
2016-May-25 13:32N 40°41' W 074°08'0 0.0
2016-May-25 12:29N 40°41' W 074°08'0 0.0
2016-May-25 11:32N 40°41' W 074°08'0 0.0
2016-May-25 10:32N 40°41' W 074°08'0 0.0
2016-May-25 09:32N 40°41' W 074°08'0 0.0
2016-May-25 07:32N 40°41' W 074°08'0 0.0
2016-May-25 06:32N 40°41' W 074°08'0 0.0
2016-May-25 05:32N 40°41' W 074°08'0 0.0
2016-May-25 04:32N 40°41' W 074°08'0 0.0
2016-May-25 03:32N 40°41' W 074°08'0 0.0
2016-May-25 02:29N 40°41' W 074°08'0 0.0
2016-May-25 01:29N 40°41' W 074°08'0 0.0
2016-May-25 00:29N 40°41' W 074°08'0 0.0
2016-May-24 23:32N 40°41' W 074°08'0 0.0
2016-May-24 22:32N 40°41' W 074°08'0 0.0
2016-May-24 21:32N 40°41' W 074°08'0 0.0
2016-May-24 20:32N 40°41' W 074°08'0 0.0
2016-May-24 19:32N 40°41' W 074°08'0 0.0
2016-May-24 18:32N 40°41' W 074°08'0 0.0
2016-May-24 17:32N 40°41' W 074°08'0 0.0
2016-May-24 16:32N 40°41' W 074°08'0 0.0
2016-May-24 15:32N 40°41' W 074°08'0 0.0
2016-May-24 14:32N 40°41' W 074°08'0 0.0
2016-May-24 13:32N 40°41' W 074°08'0 0.0
2016-May-24 12:32N 40°41' W 074°08'0 0.0
2016-May-24 11:32N 40°41' W 074°08'0 0.0
2016-May-24 10:32N 40°41' W 074°08'0 0.0
2016-May-24 09:32N 40°41' W 074°08'0 0.0
2016-May-24 08:32N 40°41' W 074°08'0 0.0
2016-May-24 07:32N 40°41' W 074°08'0 0.0
2016-May-24 06:32N 40°41' W 074°08'0 0.0
2016-May-24 05:32N 40°41' W 074°08'0 0.0
2016-May-24 04:34N 40°41' W 074°08'4 3.5
2016-May-24 03:34N 40°39' W 074°05'2 1.9
2016-May-24 02:32N 40°41' W 074°04'0 0.0
2016-May-24 01:32N 40°41' W 074°04'0 0.0
2016-May-24 00:32N 40°41' W 074°04'0 0.0
2016-May-23 23:32N 40°41' W 074°04'0 0.0
2016-May-23 22:32N 40°41' W 074°04'0 0.0
2016-May-23 21:32N 40°41' W 074°04'0 0.0
2016-May-23 20:32N 40°41' W 074°04'0 0.0
2016-May-23 19:32N 40°41' W 074°04'0 0.0
2016-May-23 18:32N 40°41' W 074°04'0 0.0
2016-May-23 17:32N 40°41' W 074°04'0 0.0
2016-May-23 16:32N 40°41' W 074°04'0 0.0
2016-May-23 15:32N 40°41' W 074°04'0 0.0
2016-May-23 14:32N 40°41' W 074°04'0 0.0
2016-May-23 13:32N 40°41' W 074°04'0 0.0
2016-May-23 12:32N 40°41' W 074°04'0 0.0
2016-May-23 11:32N 40°41' W 074°04'0 0.0
2016-May-23 10:32N 40°41' W 074°04'0 0.0
2016-May-23 09:32N 40°41' W 074°04'0 0.0
2016-May-23 08:32N 40°41' W 074°04'0 0.0
2016-May-23 07:32N 40°41' W 074°04'0 0.0
2016-May-23 06:32N 40°41' W 074°04'0 0.0
2016-May-23 05:32N 40°41' W 074°04'0 0.0
2016-May-23 04:32N 40°41' W 074°04'0 0.0
2016-May-23 03:32N 40°41' W 074°04'0 0.0
2016-May-23 02:32N 40°41' W 074°04'0 0.0
2016-May-23 01:32N 40°41' W 074°04'0 0.0
2016-May-23 00:32N 40°41' W 074°04'0 0.0
2016-May-22 23:32N 40°41' W 074°04'0 0.0
2016-May-22 22:32N 40°41' W 074°04'0 0.0
2016-May-22 21:32N 40°41' W 074°04'0 0.0
2016-May-22 19:32N 40°41' W 074°04'0 0.0
2016-May-22 18:32N 40°41' W 074°04'0 0.0
2016-May-22 17:32N 40°41' W 074°04'0 0.0
2016-May-22 16:29N 40°41' W 074°04'0 0.0
2016-May-22 15:32N 40°41' W 074°04'0 0.0
2016-May-22 14:32N 40°41' W 074°04'0 0.0
2016-May-22 13:32N 40°41' W 074°04'0 0.0
2016-May-22 12:32N 40°41' W 074°04'0 0.0
2016-May-22 11:32N 40°41' W 074°04'0 0.0
2016-May-22 09:32N 40°41' W 074°04'0 0.0
2016-May-22 08:32N 40°41' W 074°04'0 0.0
2016-May-22 07:32N 40°41' W 074°04'0 0.0
2016-May-22 06:32N 40°41' W 074°04'0 0.0
2016-May-22 05:32N 40°41' W 074°04'0 0.0
2016-May-22 04:31N 40°41' W 074°04'0 0.0
2016-May-22 03:32N 40°41' W 074°04'0 0.0
2016-May-22 02:32N 40°41' W 074°04'0 0.0
2016-May-22 01:32N 40°41' W 074°04'0 0.0
2016-May-22 00:32N 40°41' W 074°04'0 0.0
2016-May-21 23:32N 40°41' W 074°04'0 0.0
2016-May-21 22:31N 40°41' W 074°04'0 0.0
2016-May-21 21:31N 40°41' W 074°04'0 0.0
2016-May-21 20:32N 40°41' W 074°04'0 0.0
2016-May-21 19:32N 40°41' W 074°04'0 0.0
2016-May-21 18:32N 40°41' W 074°04'0 0.0
2016-May-21 17:31N 40°41' W 074°04'0 0.0
2016-May-21 16:31N 40°41' W 074°04'0 0.0
2016-May-21 15:32N 40°41' W 074°04'0 0.0
2016-May-21 14:31N 40°41' W 074°04'0 0.0
2016-May-21 13:31N 40°41' W 074°04'0 0.0
2016-May-21 12:31N 40°41' W 074°04'0 0.0
2016-May-21 11:31N 40°41' W 074°04'0 0.0
2016-May-21 10:31N 40°41' W 074°04'0 0.0
2016-May-21 09:31N 40°41' W 074°04'0 0.0
2016-May-21 08:31N 40°41' W 074°04'0 0.0
2016-May-21 07:31N 40°41' W 074°04'0 0.0
2016-May-21 06:31N 40°41' W 074°04'0 0.0
2016-May-21 05:31N 40°41' W 074°04'0 0.0
2016-May-21 04:31N 40°41' W 074°04'0 0.0
2016-May-21 03:32N 40°41' W 074°04'2 2.0
2016-May-21 02:33N 40°39' W 074°03'7 7.3
2016-May-21 01:33N 40°32' W 074°01'8 8.4
2016-May-21 00:33N 40°28' W 073°52'5 5.3
2016-May-20 23:31N 40°25' W 073°45'44 2.3
2016-May-20 04:31N 40°08' W 072°52'0 0.2
2016-May-20 03:31N 40°08' W 072°53'0 0.2
2016-May-20 02:28N 40°08' W 072°53'1 0.8
2016-May-20 01:28N 40°08' W 072°54'1 0.9
2016-May-20 00:28N 40°08' W 072°55'1 0.9
2016-May-19 23:28N 40°08' W 072°56'1 0.9
2016-May-19 22:28N 40°07' W 072°57'1 1.0
2016-May-19 21:28N 40°06' W 072°58'1 1.1
2016-May-19 20:28N 40°06' W 072°59'8 8.8
2016-May-19 19:33N 40°05' W 073°09'6 5.9
2016-May-19 18:32N 40°04' W 073°17'4 0.9
2016-May-19 13:26N 40°06' W 073°12'17 0.7
2016-May-18 14:05N 39°52' W 072°59'1 0.4
2016-May-18 12:16N 39°52' W 072°59'0 0.2
2016-May-18 11:31N 39°52' W 072°59'0 0.3
2016-May-18 10:17N 39°52' W 072°59'2 0.1
2016-May-17 13:32N 39°53' W 073°01'3 1.2
2016-May-17 11:08N 39°54' W 073°04'1 1.3
2016-May-17 10:32N 39°55' W 073°05'1 1.3
2016-May-17 09:32N 39°55' W 073°07'1 1.1
2016-May-17 08:29N 39°55' W 073°08'  
Track history (hours):
 
Tides and Currents Weather Stations Pressure Air Temp Water Temp Dewpoint Dewpoint Depression Visibility Wind Speed Wind Dir Waves Ship Positions

Atlantic Elm

Last reported at 2016-May-27 08:16 UTC. Time now 2016-May-30 20:19 UTC.
Position N 39°26' W 072°37'.

Length 190 m; draft 10.5 m.

Type: Ship (hazmat cat A). MMSI: 229081000.

Date/timePositionNaut miles runAvg speedWind from/ knotsBaromVisibWave heightAir tempDewpointWater temp
2016-May-27 08:16N 39°26' W 072°37'912.9
2016-May-27 07:33N 39°32' W 072°45'1312.9
2016-May-27 06:33N 39°42' W 072°57'1313.0
2016-May-27 05:33N 39°50' W 073°10'1312.6
2016-May-27 04:33N 39°59' W 073°21'1212.3
2016-May-27 03:33N 40°09' W 073°31'1111.2
2016-May-27 02:33N 40°18' W 073°40'10 9.7
2016-May-27 01:32N 40°25' W 073°48'9 9.3
2016-May-27 00:33N 40°30' W 073°58'9 8.6
2016-May-26 23:33N 40°38' W 074°03'0 0.2
2016-May-26 22:33N 40°38' W 074°04'0 0.0
2016-May-26 21:33N 40°38' W 074°04'0 0.0
2016-May-26 20:33N 40°38' W 074°04'0 0.0
2016-May-26 19:33N 40°38' W 074°04'0 0.2
2016-May-26 18:33N 40°38' W 074°04'0 0.1
2016-May-26 17:33N 40°38' W 074°04'0 0.1
2016-May-26 16:33N 40°38' W 074°04'4 4.1
2016-May-26 15:33N 40°39' W 074°09'2 2.1
2016-May-26 14:32N 40°41' W 074°08'0 0.0
2016-May-26 13:29N 40°41' W 074°08'0 0.0
2016-May-26 12:32N 40°41' W 074°08'0 0.0
2016-May-26 11:32N 40°41' W 074°08'0 0.0
2016-May-26 10:29N 40°41' W 074°08'0 0.0
2016-May-26 09:32N 40°41' W 074°08'0 0.0
2016-May-26 08:32N 40°41' W 074°08'0 0.0
2016-May-26 07:32N 40°41' W 074°08'0 0.0
2016-May-26 06:32N 40°41' W 074°08'0 0.0
2016-May-26 05:32N 40°41' W 074°08'0 0.0
2016-May-26 04:32N 40°41' W 074°08'0 0.0
2016-May-26 03:29N 40°41' W 074°08'0 0.0
2016-May-26 01:20N 40°41' W 074°08'0 0.0
2016-May-26 00:29N 40°41' W 074°08'0 0.0
2016-May-25 23:32N 40°41' W 074°08'0 0.0
2016-May-25 22:29N 40°41' W 074°08'0 0.0
2016-May-25 21:32N 40°41' W 074°08'0 0.0
2016-May-25 20:32N 40°41' W 074°08'0 0.0
2016-May-25 19:29N 40°41' W 074°08'0 0.0
2016-May-25 18:29N 40°41' W 074°08'0 0.0
2016-May-25 17:32N 40°41' W 074°08'0 0.0
2016-May-25 16:32N 40°41' W 074°08'0 0.0
2016-May-25 15:32N 40°41' W 074°08'0 0.0
2016-May-25 14:32N 40°41' W 074°08'0 0.0
2016-May-25 13:32N 40°41' W 074°08'0 0.0
2016-May-25 12:29N 40°41' W 074°08'0 0.0
2016-May-25 11:32N 40°41' W 074°08'0 0.0
2016-May-25 10:32N 40°41' W 074°08'0 0.0
2016-May-25 09:32N 40°41' W 074°08'0 0.0
2016-May-25 07:32N 40°41' W 074°08'0 0.0
2016-May-25 06:32N 40°41' W 074°08'0 0.0
2016-May-25 05:32N 40°41' W 074°08'0 0.0
2016-May-25 04:32N 40°41' W 074°08'0 0.0
2016-May-25 03:32N 40°41' W 074°08'0 0.0
2016-May-25 02:29N 40°41' W 074°08'0 0.0
2016-May-25 01:29N 40°41' W 074°08'0 0.0
2016-May-25 00:29N 40°41' W 074°08'0 0.0
2016-May-24 23:32N 40°41' W 074°08'0 0.0
2016-May-24 22:32N 40°41' W 074°08'0 0.0
2016-May-24 21:32N 40°41' W 074°08'0 0.0
2016-May-24 20:32N 40°41' W 074°08'0 0.0
2016-May-24 19:32N 40°41' W 074°08'0 0.0
2016-May-24 18:32N 40°41' W 074°08'0 0.0
2016-May-24 17:32N 40°41' W 074°08'0 0.0
2016-May-24 16:32N 40°41' W 074°08'0 0.0
2016-May-24 15:32N 40°41' W 074°08'0 0.0
2016-May-24 14:32N 40°41' W 074°08'0 0.0
2016-May-24 13:32N 40°41' W 074°08'0 0.0
2016-May-24 12:32N 40°41' W 074°08'0 0.0
2016-May-24 11:32N 40°41' W 074°08'0 0.0
2016-May-24 10:32N 40°41' W 074°08'0 0.0
2016-May-24 09:32N 40°41' W 074°08'0 0.0
2016-May-24 08:32N 40°41' W 074°08'0 0.0
2016-May-24 07:32N 40°41' W 074°08'0 0.0
2016-May-24 06:32N 40°41' W 074°08'0 0.0
2016-May-24 05:32N 40°41' W 074°08'0 0.0
2016-May-24 04:34N 40°41' W 074°08'4 3.5
2016-May-24 03:34N 40°39' W 074°05'2 1.9
2016-May-24 02:32N 40°41' W 074°04'0 0.0
2016-May-24 01:32N 40°41' W 074°04'0 0.0
2016-May-24 00:32N 40°41' W 074°04'0 0.0
2016-May-23 23:32N 40°41' W 074°04'0 0.0
2016-May-23 22:32N 40°41' W 074°04'0 0.0
2016-May-23 21:32N 40°41' W 074°04'0 0.0
2016-May-23 20:32N 40°41' W 074°04'0 0.0
2016-May-23 19:32N 40°41' W 074°04'0 0.0
2016-May-23 18:32N 40°41' W 074°04'0 0.0
2016-May-23 17:32N 40°41' W 074°04'0 0.0
2016-May-23 16:32N 40°41' W 074°04'0 0.0
2016-May-23 15:32N 40°41' W 074°04'0 0.0
2016-May-23 14:32N 40°41' W 074°04'0 0.0
2016-May-23 13:32N 40°41' W 074°04'0 0.0
2016-May-23 12:32N 40°41' W 074°04'0 0.0
2016-May-23 11:32N 40°41' W 074°04'0 0.0
2016-May-23 10:32N 40°41' W 074°04'0 0.0
2016-May-23 09:32N 40°41' W 074°04'0 0.0
2016-May-23 08:32N 40°41' W 074°04'0 0.0
2016-May-23 07:32N 40°41' W 074°04'0 0.0
2016-May-23 06:32N 40°41' W 074°04'0 0.0
2016-May-23 05:32N 40°41' W 074°04'0 0.0
2016-May-23 04:32N 40°41' W 074°04'0 0.0
2016-May-23 03:32N 40°41' W 074°04'0 0.0
2016-May-23 02:32N 40°41' W 074°04'0 0.0
2016-May-23 01:32N 40°41' W 074°04'0 0.0
2016-May-23 00:32N 40°41' W 074°04'0 0.0
2016-May-22 23:32N 40°41' W 074°04'0 0.0
2016-May-22 22:32N 40°41' W 074°04'0 0.0
2016-May-22 21:32N 40°41' W 074°04'0 0.0
2016-May-22 19:32N 40°41' W 074°04'0 0.0
2016-May-22 18:32N 40°41' W 074°04'0 0.0
2016-May-22 17:32N 40°41' W 074°04'0 0.0
2016-May-22 16:29N 40°41' W 074°04'0 0.0
2016-May-22 15:32N 40°41' W 074°04'0 0.0
2016-May-22 14:32N 40°41' W 074°04'0 0.0
2016-May-22 13:32N 40°41' W 074°04'0 0.0
2016-May-22 12:32N 40°41' W 074°04'0 0.0
2016-May-22 11:32N 40°41' W 074°04'0 0.0
2016-May-22 09:32N 40°41' W 074°04'0 0.0
2016-May-22 08:32N 40°41' W 074°04'0 0.0
2016-May-22 07:32N 40°41' W 074°04'0 0.0
2016-May-22 06:32N 40°41' W 074°04'0 0.0
2016-May-22 05:32N 40°41' W 074°04'0 0.0
2016-May-22 04:31N 40°41' W 074°04'0 0.0
2016-May-22 03:32N 40°41' W 074°04'0 0.0
2016-May-22 02:32N 40°41' W 074°04'0 0.0
2016-May-22 01:32N 40°41' W 074°04'0 0.0
2016-May-22 00:32N 40°41' W 074°04'0 0.0
2016-May-21 23:32N 40°41' W 074°04'0 0.0
2016-May-21 22:31N 40°41' W 074°04'0 0.0
2016-May-21 21:31N 40°41' W 074°04'0 0.0
2016-May-21 20:32N 40°41' W 074°04'0 0.0
2016-May-21 19:32N 40°41' W 074°04'0 0.0
2016-May-21 18:32N 40°41' W 074°04'0 0.0
2016-May-21 17:31N 40°41' W 074°04'0 0.0
2016-May-21 16:31N 40°41' W 074°04'0 0.0
2016-May-21 15:32N 40°41' W 074°04'0 0.0
2016-May-21 14:31N 40°41' W 074°04'0 0.0
2016-May-21 13:31N 40°41' W 074°04'0 0.0
2016-May-21 12:31N 40°41' W 074°04'0 0.0
2016-May-21 11:31N 40°41' W 074°04'0 0.0
2016-May-21 10:31N 40°41' W 074°04'0 0.0
2016-May-21 09:31N 40°41' W 074°04'0 0.0
2016-May-21 08:31N 40°41' W 074°04'0 0.0
2016-May-21 07:31N 40°41' W 074°04'0 0.0
2016-May-21 06:31N 40°41' W 074°04'0 0.0
2016-May-21 05:31N 40°41' W 074°04'0 0.0
2016-May-21 04:31N 40°41' W 074°04'0 0.0
2016-May-21 03:32N 40°41' W 074°04'2 2.0
2016-May-21 02:33N 40°39' W 074°03'7 7.3
2016-May-21 01:33N 40°32' W 074°01'8 8.4
2016-May-21 00:33N 40°28' W 073°52'5 5.3
2016-May-20 23:31N 40°25' W 073°45'44 2.3
2016-May-20 04:31N 40°08' W 072°52'0 0.2
2016-May-20 03:31N 40°08' W 072°53'0 0.2
2016-May-20 02:28N 40°08' W 072°53'1 0.8
2016-May-20 01:28N 40°08' W 072°54'1 0.9
2016-May-20 00:28N 40°08' W 072°55'1 0.9
2016-May-19 23:28N 40°08' W 072°56'1 0.9
2016-May-19 22:28N 40°07' W 072°57'1 1.0
2016-May-19 21:28N 40°06' W 072°58'1 1.1
2016-May-19 20:28N 40°06' W 072°59'8 8.8
2016-May-19 19:33N 40°05' W 073°09'6 5.9
2016-May-19 18:32N 40°04' W 073°17'4 0.9
2016-May-19 13:26N 40°06' W 073°12'17 0.7
2016-May-18 14:05N 39°52' W 072°59'1 0.4
2016-May-18 12:16N 39°52' W 072°59'0 0.2
2016-May-18 11:31N 39°52' W 072°59'0 0.3
2016-May-18 10:17N 39°52' W 072°59'2 0.1
2016-May-17 13:32N 39°53' W 073°01'3 1.2
2016-May-17 11:08N 39°54' W 073°04'1 1.3
2016-May-17 10:32N 39°55' W 073°05'1 1.3
2016-May-17 09:32N 39°55' W 073°07'1 1.1
2016-May-17 08:29N 39°55' W 073°08'  

Dump ship's entire track history